sensor_id;sensor_type;location;lat;lon;timestamp;pressure;altitude;pressure_sealevel;temperature;humidity
12358;BME280;6243;51.244;6.774;2023-04-27T00:01:17;151722.41;;;16.88;43.55
12358;BME280;6243;51.244;6.774;2023-04-27T00:03:42;151776.03;;;17.09;43.16
12358;BME280;6243;51.244;6.774;2023-04-27T00:06:08;151777.34;;;17.10;43.16
12358;BME280;6243;51.244;6.774;2023-04-27T00:08:33;151755.63;;;17.01;43.52
12358;BME280;6243;51.244;6.774;2023-04-27T00:10:59;151664.94;;;16.65;44.13
12358;BME280;6243;51.244;6.774;2023-04-27T00:13:26;151666.19;;;16.66;44.17
12358;BME280;6243;51.244;6.774;2023-04-27T00:15:51;151633.00;;;16.53;44.09
12358;BME280;6243;51.244;6.774;2023-04-27T00:18:17;151664.94;;;16.65;44.50
12358;BME280;6243;51.244;6.774;2023-04-27T00:20:43;151451.63;;;15.81;46.18
12358;BME280;6243;51.244;6.774;2023-04-27T00:23:08;151493.75;;;15.98;46.66
12358;BME280;6243;51.244;6.774;2023-04-27T00:25:34;151503.97;;;16.02;46.18
12358;BME280;6243;51.244;6.774;2023-04-27T00:27:59;151535.91;;;16.14;46.06
12358;BME280;6243;51.244;6.774;2023-04-27T00:30:26;151469.50;;;15.88;46.68
12358;BME280;6243;51.244;6.774;2023-04-27T00:32:52;151327.81;;;15.32;47.36
12358;BME280;6243;51.244;6.774;2023-04-27T00:35:18;151353.31;;;15.42;47.84
12358;BME280;6243;51.244;6.774;2023-04-27T00:37:43;151368.69;;;15.48;47.96
12358;BME280;6243;51.244;6.774;2023-04-27T00:40:09;151375.09;;;15.51;47.58
12358;BME280;6243;51.244;6.774;2023-04-27T00:42:35;151359.75;;;15.45;48.03
12358;BME280;6243;51.244;6.774;2023-04-27T00:45:00;151451.63;;;15.81;46.90
12358;BME280;6243;51.244;6.774;2023-04-27T00:47:28;151446.53;;;15.79;46.95
12358;BME280;6243;51.244;6.774;2023-04-27T00:49:54;151473.34;;;15.90;46.19
12358;BME280;6243;51.244;6.774;2023-04-27T00:52:20;151475.88;;;15.91;46.64
12358;BME280;6243;51.244;6.774;2023-04-27T00:54:49;151492.47;;;15.97;46.26
12358;BME280;6243;51.244;6.774;2023-04-27T00:57:15;151428.66;;;15.72;46.74
12358;BME280;6243;51.244;6.774;2023-04-27T00:59:40;151384.00;;;15.54;47.63
12358;BME280;6243;51.244;6.774;2023-04-27T01:02:06;151428.66;;;15.72;46.84
12358;BME280;6243;51.244;6.774;2023-04-27T01:04:34;151288.28;;;15.17;48.19
12358;BME280;6243;51.244;6.774;2023-04-27T01:06:59;151295.91;;;15.20;48.26
12358;BME280;6243;51.244;6.774;2023-04-27T01:09:24;151409.53;;;15.65;47.26
12358;BME280;6243;51.244;6.774;2023-04-27T01:11:50;151489.94;;;15.96;46.13
12358;BME280;6243;51.244;6.774;2023-04-27T01:14:15;151583.16;;;16.33;45.81
12358;BME280;6243;51.244;6.774;2023-04-27T01:16:41;151625.25;;;16.50;45.27
12358;BME280;6243;51.244;6.774;2023-04-27T01:19:07;151594.66;;;16.38;45.26
12358;BME280;6243;51.244;6.774;2023-04-27T01:21:33;151625.25;;;16.50;44.99
12358;BME280;6243;51.244;6.774;2023-04-27T01:24:00;151652.16;;;16.60;44.70
12358;BME280;6243;51.244;6.774;2023-04-27T01:26:28;151672.56;;;16.68;44.49
12358;BME280;6243;51.244;6.774;2023-04-27T01:28:53;151663.66;;;16.65;44.65
12358;BME280;6243;51.244;6.774;2023-04-27T01:31:19;151633.00;;;16.53;44.50
12358;BME280;6243;51.244;6.774;2023-04-27T01:33:44;151570.38;;;16.28;45.06
12358;BME280;6243;51.244;6.774;2023-04-27T01:36:10;151518.03;;;16.07;45.54
12358;BME280;6243;51.244;6.774;2023-04-27T01:38:35;151514.22;;;16.06;45.36
12358;BME280;6243;51.244;6.774;2023-04-27T01:41:04;151408.25;;;15.64;46.32
12358;BME280;6243;51.244;6.774;2023-04-27T01:43:30;151385.28;;;15.55;46.80
12358;BME280;6243;51.244;6.774;2023-04-27T01:45:56;151461.88;;;15.85;45.94
12358;BME280;6243;51.244;6.774;2023-04-27T01:48:28;151289.56;;;15.17;47.58
12358;BME280;6243;51.244;6.774;2023-04-27T01:50:54;151395.47;;;15.59;46.81
12358;BME280;6243;51.244;6.774;2023-04-27T01:53:19;151410.84;;;15.65;46.80
12358;BME280;6243;51.244;6.774;2023-04-27T01:55:45;151450.38;;;15.81;46.31
12358;BME280;6243;51.244;6.774;2023-04-27T01:58:12;151468.25;;;15.88;45.47
12358;BME280;6243;51.244;6.774;2023-04-27T02:00:37;151450.38;;;15.81;46.16
12358;BME280;6243;51.244;6.774;2023-04-27T02:03:03;151452.91;;;15.82;45.87
12358;BME280;6243;51.244;6.774;2023-04-27T02:05:28;151405.69;;;15.63;46.15
12358;BME280;6243;51.244;6.774;2023-04-27T02:07:54;151432.50;;;15.74;46.00
12358;BME280;6243;51.244;6.774;2023-04-27T02:10:19;151450.38;;;15.81;45.89
12358;BME280;6243;51.244;6.774;2023-04-27T02:12:45;151387.84;;;15.56;46.35
12358;BME280;6243;51.244;6.774;2023-04-27T02:15:11;151473.34;;;15.90;46.14
12358;BME280;6243;51.244;6.774;2023-04-27T02:17:37;151466.97;;;15.87;46.10
12358;BME280;6243;51.244;6.774;2023-04-27T02:20:04;151468.25;;;15.88;45.96
12358;BME280;6243;51.244;6.774;2023-04-27T02:22:29;151372.50;;;15.50;46.79
12358;BME280;6243;51.244;6.774;2023-04-27T02:24:55;151352.06;;;15.42;47.05
12358;BME280;6243;51.244;6.774;2023-04-27T02:27:20;151348.22;;;15.40;47.01
12358;BME280;6243;51.244;6.774;2023-04-27T02:29:46;151338.00;;;15.36;47.12
12358;BME280;6243;51.244;6.774;2023-04-27T02:32:12;151341.81;;;15.38;47.14
12358;BME280;6243;51.244;6.774;2023-04-27T02:34:38;151366.13;;;15.47;46.96
12358;BME280;6243;51.244;6.774;2023-04-27T02:37:03;151380.19;;;15.53;46.85
12358;BME280;6243;51.244;6.774;2023-04-27T02:39:29;151389.09;;;15.56;46.67
12358;BME280;6243;51.244;6.774;2023-04-27T02:41:54;151418.44;;;15.68;46.74
12358;BME280;6243;51.244;6.774;2023-04-27T02:44:20;151438.91;;;15.76;46.47
12358;BME280;6243;51.244;6.774;2023-04-27T02:46:45;151446.53;;;15.79;46.27
12358;BME280;6243;51.244;6.774;2023-04-27T02:49:12;151444.00;;;15.78;45.87
12358;BME280;6243;51.244;6.774;2023-04-27T02:51:38;151403.16;;;15.62;46.35
12358;BME280;6243;51.244;6.774;2023-04-27T02:54:03;151368.69;;;15.48;46.69
12358;BME280;6243;51.244;6.774;2023-04-27T02:56:29;151358.50;;;15.44;46.79
12358;BME280;6243;51.244;6.774;2023-04-27T02:58:54;151405.69;;;15.63;46.53
12358;BME280;6243;51.244;6.774;2023-04-27T03:01:20;151329.09;;;15.33;46.62
12358;BME280;6243;51.244;6.774;2023-04-27T03:03:45;151364.88;;;15.47;47.01
12358;BME280;6243;51.244;6.774;2023-04-27T03:06:12;151405.69;;;15.63;46.61
12358;BME280;6243;51.244;6.774;2023-04-27T03:08:38;151390.38;;;15.57;46.62
12358;BME280;6243;51.244;6.774;2023-04-27T03:11:04;151375.09;;;15.51;46.46
12358;BME280;6243;51.244;6.774;2023-04-27T03:13:29;151390.38;;;15.57;46.71
12358;BME280;6243;51.244;6.774;2023-04-27T03:15:55;151431.22;;;15.73;46.31
12358;BME280;6243;51.244;6.774;2023-04-27T03:18:20;151418.44;;;15.68;46.73
12358;BME280;6243;51.244;6.774;2023-04-27T03:20:46;151423.56;;;15.70;46.82
12358;BME280;6243;51.244;6.774;2023-04-27T03:23:13;151357.22;;;15.44;46.83
12358;BME280;6243;51.244;6.774;2023-04-27T03:25:38;151362.31;;;15.46;46.55
12358;BME280;6243;51.244;6.774;2023-04-27T03:28:04;151274.22;;;15.11;47.10
12358;BME280;6243;51.244;6.774;2023-04-27T03:30:29;151363.59;;;15.46;46.52
12358;BME280;6243;51.244;6.774;2023-04-27T03:32:55;151412.06;;;15.66;46.47
12358;BME280;6243;51.244;6.774;2023-04-27T03:35:20;151264.03;;;15.07;47.15
12358;BME280;6243;51.244;6.774;2023-04-27T03:37:46;151205.34;;;14.84;47.90
12358;BME280;6243;51.244;6.774;2023-04-27T03:40:13;151279.31;;;15.13;47.55
12358;BME280;6243;51.244;6.774;2023-04-27T03:42:38;151233.41;;;14.95;47.59
12358;BME280;6243;51.244;6.774;2023-04-27T03:45:05;151125.00;;;14.52;48.30
12358;BME280;6243;51.244;6.774;2023-04-27T03:47:30;151072.72;;;14.32;48.64
12358;BME280;6243;51.244;6.774;2023-04-27T03:49:56;151156.88;;;14.65;48.39
12358;BME280;6243;51.244;6.774;2023-04-27T03:52:21;151178.59;;;14.73;48.08
12358;BME280;6243;51.244;6.774;2023-04-27T03:54:47;151141.59;;;14.59;48.16
12358;BME280;6243;51.244;6.774;2023-04-27T03:57:14;151146.69;;;14.61;48.43
12358;BME280;6243;51.244;6.774;2023-04-27T03:59:39;151242.34;;;14.99;48.01
12358;BME280;6243;51.244;6.774;2023-04-27T04:02:05;151191.34;;;14.78;48.02
12358;BME280;6243;51.244;6.774;2023-04-27T04:04:30;151197.69;;;14.81;47.92
12358;BME280;6243;51.244;6.774;2023-04-27T04:06:56;151165.81;;;14.68;48.33
12358;BME280;6243;51.244;6.774;2023-04-27T04:09:21;151183.69;;;14.75;48.39
12358;BME280;6243;51.244;6.774;2023-04-27T04:11:47;151144.16;;;14.60;48.79
12358;BME280;6243;51.244;6.774;2023-04-27T04:14:13;151155.63;;;14.64;48.44
12358;BME280;6243;51.244;6.774;2023-04-27T04:16:39;151165.81;;;14.68;48.13
12358;BME280;6243;51.244;6.774;2023-04-27T04:19:04;151181.09;;;14.74;47.83
12358;BME280;6243;51.244;6.774;2023-04-27T04:21:30;151187.50;;;14.77;47.71
12358;BME280;6243;51.244;6.774;2023-04-27T04:23:55;151142.88;;;14.59;48.63
12358;BME280;6243;51.244;6.774;2023-04-27T04:26:21;151220.63;;;14.90;47.83
12358;BME280;6243;51.244;6.774;2023-04-27T04:28:46;151176.00;;;14.72;48.56
12358;BME280;6243;51.244;6.774;2023-04-27T04:31:13;151147.97;;;14.61;48.86
12358;BME280;6243;51.244;6.774;2023-04-27T04:33:39;151025.50;;;14.13;49.95
12358;BME280;6243;51.244;6.774;2023-04-27T04:36:05;150941.41;;;13.80;51.09
12358;BME280;6243;51.244;6.774;2023-04-27T04:38:30;150933.75;;;13.77;51.17
12358;BME280;6243;51.244;6.774;2023-04-27T04:40:56;150957.97;;;13.86;50.14
12358;BME280;6243;51.244;6.774;2023-04-27T04:43:21;150977.09;;;13.94;50.66
12358;BME280;6243;51.244;6.774;2023-04-27T04:45:47;150971.97;;;13.92;51.26
12358;BME280;6243;51.244;6.774;2023-04-27T04:48:14;150875.13;;;13.53;52.13
12358;BME280;6243;51.244;6.774;2023-04-27T04:50:40;150978.34;;;13.94;51.19
12358;BME280;6243;51.244;6.774;2023-04-27T04:53:05;151008.94;;;14.06;51.06
12358;BME280;6243;51.244;6.774;2023-04-27T04:55:30;151023.00;;;14.12;50.90
12358;BME280;6243;51.244;6.774;2023-04-27T04:57:56;151056.13;;;14.25;50.46
12358;BME280;6243;51.244;6.774;2023-04-27T05:00:21;150984.72;;;13.97;51.77
12358;BME280;6243;51.244;6.774;2023-04-27T05:02:47;151155.63;;;14.64;49.70
12358;BME280;6243;51.244;6.774;2023-04-27T05:05:14;151242.34;;;14.99;48.90
12358;BME280;6243;51.244;6.774;2023-04-27T05:07:39;151225.78;;;14.92;49.29
12358;BME280;6243;51.244;6.774;2023-04-27T05:10:05;151283.19;;;15.15;48.74
12358;BME280;6243;51.244;6.774;2023-04-27T05:12:31;151313.75;;;15.27;48.55
12358;BME280;6243;51.244;6.774;2023-04-27T05:14:57;151358.50;;;15.44;48.19
12358;BME280;6243;51.244;6.774;2023-04-27T05:17:22;151326.53;;;15.32;48.80
12358;BME280;6243;51.244;6.774;2023-04-27T05:19:48;151390.38;;;15.57;48.25
12358;BME280;6243;51.244;6.774;2023-04-27T05:22:14;151398.06;;;15.60;48.04
12358;BME280;6243;51.244;6.774;2023-04-27T05:24:40;151405.69;;;15.63;47.96
12358;BME280;6243;51.244;6.774;2023-04-27T05:27:05;151456.78;;;15.83;47.78
12358;BME280;6243;51.244;6.774;2023-04-27T05:29:31;151498.88;;;16.00;47.88
12358;BME280;6243;51.244;6.774;2023-04-27T05:31:56;151525.69;;;16.10;47.48
12358;BME280;6243;51.244;6.774;2023-04-27T05:34:22;151560.16;;;16.24;47.21
12358;BME280;6243;51.244;6.774;2023-04-27T05:36:47;151566.56;;;16.26;47.30
12358;BME280;6243;51.244;6.774;2023-04-27T05:39:14;151589.53;;;16.36;46.96
12358;BME280;6243;51.244;6.774;2023-04-27T05:41:40;151639.38;;;16.55;47.19
12358;BME280;6243;51.244;6.774;2023-04-27T05:44:05;151580.59;;;16.32;47.11
12358;BME280;6243;51.244;6.774;2023-04-27T05:46:31;151671.34;;;16.68;46.73
12358;BME280;6243;51.244;6.774;2023-04-27T05:48:57;151696.84;;;16.78;46.67
12358;BME280;6243;51.244;6.774;2023-04-27T05:51:23;151742.84;;;16.96;46.37
12358;BME280;6243;51.244;6.774;2023-04-27T05:53:48;151718.56;;;16.86;46.28
12358;BME280;6243;51.244;6.774;2023-04-27T05:56:15;151737.72;;;16.94;46.56
12358;BME280;6243;51.244;6.774;2023-04-27T05:58:41;151747.94;;;16.98;46.14
12358;BME280;6243;51.244;6.774;2023-04-27T06:01:06;151753.03;;;17.00;45.85
12358;BME280;6243;51.244;6.774;2023-04-27T06:03:32;151799.03;;;17.18;45.60
12358;BME280;6243;51.244;6.774;2023-04-27T06:05:59;151834.81;;;17.32;45.52
12358;BME280;6243;51.244;6.774;2023-04-27T06:08:24;151915.38;;;17.64;45.44
12358;BME280;6243;51.244;6.774;2023-04-27T06:10:50;151891.16;;;17.54;45.54
12358;BME280;6243;51.244;6.774;2023-04-27T06:13:17;151928.19;;;17.69;44.91
12358;BME280;6243;51.244;6.774;2023-04-27T06:15:43;151974.19;;;17.87;45.04
12358;BME280;6243;51.244;6.774;2023-04-27T06:18:08;151989.56;;;17.93;44.89
12358;BME280;6243;51.244;6.774;2023-04-27T06:20:34;151984.41;;;17.91;44.31
12358;BME280;6243;51.244;6.774;2023-04-27T06:22:59;151944.78;;;17.76;44.53
12358;BME280;6243;51.244;6.774;2023-04-27T06:25:25;151905.19;;;17.60;44.29
12358;BME280;6243;51.244;6.774;2023-04-27T06:27:50;151953.78;;;17.79;44.06
12358;BME280;6243;51.244;6.774;2023-04-27T06:30:17;152021.50;;;18.06;43.93
12358;BME280;6243;51.244;6.774;2023-04-27T06:32:43;151978.06;;;17.89;43.85
12358;BME280;6243;51.244;6.774;2023-04-27T06:35:09;152070.13;;;18.25;43.76
12358;BME280;6243;51.244;6.774;2023-04-27T06:37:34;152098.25;;;18.36;43.36
12358;BME280;6243;51.244;6.774;2023-04-27T06:40:00;152063.72;;;18.22;42.84
12358;BME280;6243;51.244;6.774;2023-04-27T06:42:25;152149.44;;;18.56;43.00
12358;BME280;6243;51.244;6.774;2023-04-27T06:44:52;152212.13;;;18.81;42.80
12358;BME280;6243;51.244;6.774;2023-04-27T06:47:19;152256.88;;;18.98;42.47
12358;BME280;6243;51.244;6.774;2023-04-27T06:49:45;152310.66;;;19.20;42.35
12358;BME280;6243;51.244;6.774;2023-04-27T06:52:10;152204.44;;;18.78;41.69
12358;BME280;6243;51.244;6.774;2023-04-27T06:54:36;152230.03;;;18.88;41.94
12358;BME280;6243;51.244;6.774;2023-04-27T06:57:01;152338.78;;;19.31;41.74
12358;BME280;6243;51.244;6.774;2023-04-27T06:59:27;152364.47;;;19.41;41.27
12358;BME280;6243;51.244;6.774;2023-04-27T07:01:52;152386.22;;;19.49;40.83
12358;BME280;6243;51.244;6.774;2023-04-27T07:04:19;152336.25;;;19.30;40.78
12358;BME280;6243;51.244;6.774;2023-04-27T07:06:45;152319.63;;;19.23;40.62
12358;BME280;6243;51.244;6.774;2023-04-27T07:09:10;152352.94;;;19.36;40.86
12358;BME280;6243;51.244;6.774;2023-04-27T07:11:36;152384.91;;;19.49;40.51
12358;BME280;6243;51.244;6.774;2023-04-27T07:14:01;152418.25;;;19.62;40.19
12358;BME280;6243;51.244;6.774;2023-04-27T07:16:27;152098.25;;;18.36;42.01
12358;BME280;6243;51.244;6.774;2023-04-27T07:18:52;152342.66;;;19.32;41.69
12358;BME280;6243;51.244;6.774;2023-04-27T07:21:19;152409.25;;;19.58;41.06
12358;BME280;6243;51.244;6.774;2023-04-27T07:23:45;152465.56;;;19.80;40.36
12358;BME280;6243;51.244;6.774;2023-04-27T07:26:10;152644.94;;;20.51;40.08
12358;BME280;6243;51.244;6.774;2023-04-27T07:28:36;152584.72;;;20.27;38.88
12358;BME280;6243;51.244;6.774;2023-04-27T07:31:03;152624.41;;;20.43;39.57
12358;BME280;6243;51.244;6.774;2023-04-27T07:33:30;152660.28;;;20.57;38.29
12358;BME280;6243;51.244;6.774;2023-04-27T07:35:55;152661.59;;;20.58;38.29
12358;BME280;6243;51.244;6.774;2023-04-27T07:38:22;152714.13;;;20.78;38.71
12358;BME280;6243;51.244;6.774;2023-04-27T07:40:48;152721.78;;;20.81;39.02
12358;BME280;6243;51.244;6.774;2023-04-27T07:43:13;152779.47;;;21.04;38.46
12358;BME280;6243;51.244;6.774;2023-04-27T07:45:39;152746.13;;;20.91;38.30
12358;BME280;6243;51.244;6.774;2023-04-27T07:48:05;152548.81;;;20.13;38.18
12358;BME280;6243;51.244;6.774;2023-04-27T07:50:31;152683.34;;;20.66;37.88
12358;BME280;6243;51.244;6.774;2023-04-27T07:52:57;152673.13;;;20.62;37.59
12358;BME280;6243;51.244;6.774;2023-04-27T07:55:25;152400.31;;;19.55;38.39
12358;BME280;6243;51.244;6.774;2023-04-27T07:57:51;152277.38;;;19.06;38.80
12358;BME280;6243;51.244;6.774;2023-04-27T08:00:18;152477.09;;;19.85;39.23
12358;BME280;6243;51.244;6.774;2023-04-27T08:02:43;152512.94;;;19.99;39.11
12358;BME280;6243;51.244;6.774;2023-04-27T08:05:09;152542.41;;;20.11;38.63
12358;BME280;6243;51.244;6.774;2023-04-27T08:07:34;152646.19;;;20.51;38.64
12358;BME280;6243;51.244;6.774;2023-04-27T08:10:00;152825.63;;;21.22;37.85
12358;BME280;6243;51.244;6.774;2023-04-27T08:12:27;152761.50;;;20.97;37.06
12358;BME280;6243;51.244;6.774;2023-04-27T08:14:52;152915.38;;;21.57;37.04
12358;BME280;6243;51.244;6.774;2023-04-27T08:17:18;152892.28;;;21.48;36.40
12358;BME280;6243;51.244;6.774;2023-04-27T08:19:43;152932.03;;;21.64;36.05
12358;BME280;6243;51.244;6.774;2023-04-27T08:22:09;153032.09;;;22.03;36.02
12358;BME280;6243;51.244;6.774;2023-04-27T08:24:34;152997.47;;;21.89;36.48
12358;BME280;6243;51.244;6.774;2023-04-27T08:27:00;152849.97;;;21.32;36.05
12358;BME280;6243;51.244;6.774;2023-04-27T08:29:27;152784.66;;;21.06;37.21
12358;BME280;6243;51.244;6.774;2023-04-27T08:31:53;152866.63;;;21.38;35.92
12358;BME280;6243;51.244;6.774;2023-04-27T08:34:18;152824.38;;;21.22;36.07
12358;BME280;6243;51.244;6.774;2023-04-27T08:36:44;152752.53;;;20.93;36.25
12358;BME280;6243;51.244;6.774;2023-04-27T08:39:09;152889.69;;;21.47;36.02
12358;BME280;6243;51.244;6.774;2023-04-27T08:41:35;152866.63;;;21.38;35.79
12358;BME280;6243;51.244;6.774;2023-04-27T08:44:01;152747.41;;;20.91;36.51
12358;BME280;6243;51.244;6.774;2023-04-27T08:46:27;152780.78;;;21.04;36.56
12358;BME280;6243;51.244;6.774;2023-04-27T08:48:53;152743.59;;;20.90;36.52
12358;BME280;6243;51.244;6.774;2023-04-27T08:51:20;152739.72;;;20.88;35.77
12358;BME280;6243;51.244;6.774;2023-04-27T08:53:49;152928.19;;;21.62;35.26
12358;BME280;6243;51.244;6.774;2023-04-27T08:56:14;153041.06;;;22.07;34.65
12358;BME280;6243;51.244;6.774;2023-04-27T08:58:40;152907.66;;;21.54;34.59
12358;BME280;6243;51.244;6.774;2023-04-27T09:01:05;153024.38;;;22.00;34.40
12358;BME280;6243;51.244;6.774;2023-04-27T09:03:33;153039.81;;;22.06;33.95
12358;BME280;6243;51.244;6.774;2023-04-27T09:05:59;153064.13;;;22.16;34.10
12358;BME280;6243;51.244;6.774;2023-04-27T09:08:24;153033.38;;;22.04;34.48
12358;BME280;6243;51.244;6.774;2023-04-27T09:10:50;153144.97;;;22.47;34.25
12358;BME280;6243;51.244;6.774;2023-04-27T09:13:16;153094.94;;;22.28;34.02
12358;BME280;6243;51.244;6.774;2023-04-27T09:15:43;153175.75;;;22.59;33.80
12358;BME280;6243;51.244;6.774;2023-04-27T09:18:14;153300.28;;;23.08;34.95
12358;BME280;6243;51.244;6.774;2023-04-27T09:20:43;153367.03;;;23.35;34.21
12358;BME280;6243;51.244;6.774;2023-04-27T09:23:09;153011.56;;;21.95;34.48
12358;BME280;6243;51.244;6.774;2023-04-27T09:25:34;153129.56;;;22.41;33.69
12358;BME280;6243;51.244;6.774;2023-04-27T09:28:00;153110.31;;;22.34;33.36
12358;BME280;6243;51.244;6.774;2023-04-27T09:30:27;153269.47;;;22.96;33.68
12358;BME280;6243;51.244;6.774;2023-04-27T09:32:54;153358.03;;;23.31;32.41
12358;BME280;6243;51.244;6.774;2023-04-27T09:35:21;153372.16;;;23.37;32.25
12358;BME280;6243;51.244;6.774;2023-04-27T09:37:49;153239.94;;;22.85;32.67
12358;BME280;6243;51.244;6.774;2023-04-27T09:40:15;153161.66;;;22.54;32.45
12358;BME280;6243;51.244;6.774;2023-04-27T09:42:42;152924.31;;;21.61;32.51
12358;BME280;6243;51.244;6.774;2023-04-27T09:45:08;152970.50;;;21.79;32.85
12358;BME280;6243;51.244;6.774;2023-04-27T09:47:35;152832.03;;;21.25;33.16
12358;BME280;6243;51.244;6.774;2023-04-27T09:50:02;153042.34;;;22.07;32.95
12358;BME280;6243;51.244;6.774;2023-04-27T09:52:30;153107.75;;;22.33;32.85
12358;BME280;6243;51.244;6.774;2023-04-27T09:54:57;153079.56;;;22.22;32.58
12358;BME280;6243;51.244;6.774;2023-04-27T09:57:30;153232.22;;;22.82;32.65
12358;BME280;6243;51.244;6.774;2023-04-27T10:00:08;153318.25;;;23.15;31.74
12358;BME280;6243;51.244;6.774;2023-04-27T10:02:41;153367.03;;;23.35;31.59
12358;BME280;6243;51.244;6.774;2023-04-27T10:05:28;153133.38;;;22.43;31.42
12358;BME280;6243;51.244;6.774;2023-04-27T10:07:56;153088.50;;;22.25;32.98
12358;BME280;6243;51.244;6.774;2023-04-27T10:10:23;153275.88;;;22.99;32.25
12358;BME280;6243;51.244;6.774;2023-04-27T10:12:55;153413.25;;;23.53;32.29
12358;BME280;6243;51.244;6.774;2023-04-27T10:15:25;153523.66;;;23.96;32.37
12358;BME280;6243;51.244;6.774;2023-04-27T10:17:51;153458.22;;;23.70;31.13
12358;BME280;6243;51.244;6.774;2023-04-27T10:20:27;153505.69;;;23.89;30.99
12358;BME280;6243;51.244;6.774;2023-04-27T10:22:53;153450.50;;;23.67;30.71
12358;BME280;6243;51.244;6.774;2023-04-27T10:25:20;153325.91;;;23.18;29.84
12358;BME280;6243;51.244;6.774;2023-04-27T10:27:52;153528.84;;;23.98;29.70
12358;BME280;6243;51.244;6.774;2023-04-27T10:30:19;153489.00;;;23.82;30.48
12358;BME280;6243;51.244;6.774;2023-04-27T10:32:52;153331.09;;;23.20;30.58
12358;BME280;6243;51.244;6.774;2023-04-27T10:35:18;153313.13;;;23.13;30.88
12358;BME280;6243;51.244;6.774;2023-04-27T10:37:44;153494.13;;;23.84;31.40
12358;BME280;6243;51.244;6.774;2023-04-27T10:40:11;153213.00;;;22.74;31.41
12358;BME280;6243;51.244;6.774;2023-04-27T10:42:37;153092.38;;;22.27;31.65
12358;BME280;6243;51.244;6.774;2023-04-27T10:45:05;153102.63;;;22.31;31.68
12358;BME280;6243;51.244;6.774;2023-04-27T10:47:38;153156.53;;;22.52;31.76
12358;BME280;6243;51.244;6.774;2023-04-27T10:50:05;153354.19;;;23.29;32.17
12358;BME280;6243;51.244;6.774;2023-04-27T10:52:30;153405.56;;;23.50;31.75
12358;BME280;6243;51.244;6.774;2023-04-27T10:54:56;153549.41;;;24.06;32.51
12358;BME280;6243;51.244;6.774;2023-04-27T10:57:21;153589.22;;;24.22;30.58
12358;BME280;6243;51.244;6.774;2023-04-27T10:59:48;153617.47;;;24.33;29.95
12358;BME280;6243;51.244;6.774;2023-04-27T11:02:15;153693.28;;;24.62;31.20
12358;BME280;6243;51.244;6.774;2023-04-27T11:04:41;153698.41;;;24.64;31.70
12358;BME280;6243;51.244;6.774;2023-04-27T11:07:06;153729.31;;;24.77;30.98
12358;BME280;6243;51.244;6.774;2023-04-27T11:09:32;153719.00;;;24.73;31.19
12358;BME280;6243;51.244;6.774;2023-04-27T11:11:58;153563.56;;;24.12;31.35
12358;BME280;6243;51.244;6.774;2023-04-27T11:14:23;153432.53;;;23.60;32.11
12358;BME280;6243;51.244;6.774;2023-04-27T11:16:49;153409.41;;;23.51;31.31
12358;BME280;6243;51.244;6.774;2023-04-27T11:19:19;153550.72;;;24.07;31.87
12358;BME280;6243;51.244;6.774;2023-04-27T11:21:45;153814.16;;;25.10;30.78
12358;BME280;6243;51.244;6.774;2023-04-27T11:24:10;153693.28;;;24.62;31.14
12358;BME280;6243;51.244;6.774;2023-04-27T11:26:36;153729.31;;;24.77;31.31
12358;BME280;6243;51.244;6.774;2023-04-27T11:29:04;153797.41;;;25.03;31.40
12358;BME280;6243;51.244;6.774;2023-04-27T11:31:38;153752.44;;;24.86;30.08
12358;BME280;6243;51.244;6.774;2023-04-27T11:34:05;153860.41;;;25.28;29.95
12358;BME280;6243;51.244;6.774;2023-04-27T11:36:32;153985.13;;;25.77;31.06
12358;BME280;6243;51.244;6.774;2023-04-27T11:38:57;153886.09;;;25.38;29.96
12358;BME280;6243;51.244;6.774;2023-04-27T11:41:32;153996.69;;;25.81;30.32
12358;BME280;6243;51.244;6.774;2023-04-27T11:44:03;153973.56;;;25.72;30.45
12358;BME280;6243;51.244;6.774;2023-04-27T11:46:28;153969.72;;;25.71;28.98
12358;BME280;6243;51.244;6.774;2023-04-27T11:49:00;153865.53;;;25.30;29.92
12358;BME280;6243;51.244;6.774;2023-04-27T11:51:26;153891.22;;;25.40;29.87
12358;BME280;6243;51.244;6.774;2023-04-27T11:53:54;153829.56;;;25.16;29.87
12358;BME280;6243;51.244;6.774;2023-04-27T11:56:20;153803.81;;;25.06;30.49
12358;BME280;6243;51.244;6.774;2023-04-27T11:58:45;153735.72;;;24.79;30.20
12358;BME280;6243;51.244;6.774;2023-04-27T12:01:11;153821.81;;;25.13;30.75
12358;BME280;6243;51.244;6.774;2023-04-27T12:03:37;153622.59;;;24.35;30.19
12358;BME280;6243;51.244;6.774;2023-04-27T12:06:02;153658.59;;;24.49;30.85
12358;BME280;6243;51.244;6.774;2023-04-27T12:08:28;153739.56;;;24.81;30.81
12358;BME280;6243;51.244;6.774;2023-04-27T12:10:55;153746.00;;;24.83;30.35
12358;BME280;6243;51.244;6.774;2023-04-27T12:13:20;153812.84;;;25.09;30.50
12358;BME280;6243;51.244;6.774;2023-04-27T12:15:46;153577.66;;;24.17;30.50
12358;BME280;6243;51.244;6.774;2023-04-27T12:18:11;153600.78;;;24.26;31.18
12358;BME280;6243;51.244;6.774;2023-04-27T12:20:37;153397.84;;;23.47;31.06
12358;BME280;6243;51.244;6.774;2023-04-27T12:23:02;153545.53;;;24.05;30.53
12358;BME280;6243;51.244;6.774;2023-04-27T12:25:28;153676.56;;;24.56;30.95
12358;BME280;6243;51.244;6.774;2023-04-27T12:27:55;153812.84;;;25.09;31.42
12358;BME280;6243;51.244;6.774;2023-04-27T12:30:22;153914.41;;;25.49;31.34
12358;BME280;6243;51.244;6.774;2023-04-27T12:32:47;153954.25;;;25.65;29.78
12358;BME280;6243;51.244;6.774;2023-04-27T12:35:13;154019.84;;;25.90;30.79
12358;BME280;6243;51.244;6.774;2023-04-27T12:37:39;154223.13;;;26.70;29.53
12358;BME280;6243;51.244;6.774;2023-04-27T12:40:05;154135.63;;;26.36;29.68
12358;BME280;6243;51.244;6.774;2023-04-27T12:42:31;154079.06;;;26.14;29.80
12358;BME280;6243;51.244;6.774;2023-04-27T12:44:58;154152.34;;;26.42;29.93
12358;BME280;6243;51.244;6.774;2023-04-27T12:47:24;154170.38;;;26.49;29.92
12358;BME280;6243;51.244;6.774;2023-04-27T12:49:49;154395.69;;;27.37;28.69
12358;BME280;6243;51.244;6.774;2023-04-27T12:52:15;154501.25;;;27.79;29.21
12358;BME280;6243;51.244;6.774;2023-04-27T12:54:41;154512.84;;;27.83;28.67